createdAt,value
2023-05-22T00:01:44.545Z,16.22
2023-05-22T00:04:13.485Z,16.21
2023-05-22T00:06:43.108Z,16.24
2023-05-22T00:09:10.034Z,16.23
2023-05-22T00:11:36.696Z,16.23
2023-05-22T00:14:03.431Z,16.21
2023-05-22T00:16:30.249Z,16.18
2023-05-22T00:18:57.726Z,16.18
2023-05-22T00:21:27.969Z,16.17
2023-05-22T00:23:54.583Z,16.18
2023-05-22T00:26:23.380Z,16.14
2023-05-22T00:28:50.133Z,16.10
2023-05-22T00:31:16.704Z,16.06
2023-05-22T00:33:43.267Z,16.03
2023-05-22T00:36:09.934Z,15.98
2023-05-22T00:38:37.950Z,15.94
2023-05-22T00:41:06.432Z,15.90
2023-05-22T00:43:34.355Z,15.83
2023-05-22T00:46:01.438Z,15.80
2023-05-22T00:48:28.110Z,15.80
2023-05-22T00:50:57.154Z,15.77
2023-05-22T00:53:25.053Z,15.77
2023-05-22T00:55:53.809Z,15.81
2023-05-22T00:58:21.911Z,15.82
2023-05-22T01:00:48.650Z,15.77
2023-05-22T01:03:15.919Z,15.74
2023-05-22T01:05:43.591Z,15.72
2023-05-22T01:08:10.360Z,15.72
2023-05-22T01:10:38.914Z,15.73
2023-05-22T01:13:10.826Z,15.71
2023-05-22T01:15:49.893Z,15.71
2023-05-22T01:18:19.936Z,15.71
2023-05-22T01:21:16.073Z,15.70
2023-05-22T01:24:26.236Z,15.68
2023-05-22T01:27:11.262Z,15.68
2023-05-22T01:29:52.715Z,15.67
2023-05-22T01:32:25.286Z,15.67
2023-05-22T01:34:56.950Z,15.69
2023-05-22T01:37:24.834Z,15.69
2023-05-22T01:39:52.489Z,15.70
2023-05-22T01:42:19.842Z,15.72
2023-05-22T01:44:48.747Z,15.74
2023-05-22T01:47:15.401Z,15.76
2023-05-22T01:49:42.847Z,15.75
2023-05-22T01:52:15.378Z,15.75
2023-05-22T01:55:03.816Z,15.72
2023-05-22T01:57:45.822Z,15.72
2023-05-22T02:00:15.208Z,15.73
2023-05-22T02:02:49.824Z,15.71
2023-05-22T02:05:19.250Z,15.70
2023-05-22T02:07:47.736Z,15.72
2023-05-22T02:10:15.801Z,15.72
2023-05-22T02:12:42.490Z,15.70
2023-05-22T02:15:09.818Z,15.68
2023-05-22T02:17:40.637Z,15.63
2023-05-22T02:20:14.539Z,15.59
2023-05-22T02:22:43.429Z,15.56
2023-05-22T02:25:14.377Z,15.54
2023-05-22T02:27:45.478Z,15.56
2023-05-22T02:30:13.111Z,15.54
2023-05-22T02:32:40.651Z,15.52
2023-05-22T02:35:08.448Z,15.51
2023-05-22T02:37:35.575Z,15.50
2023-05-22T02:40:02.424Z,15.51
2023-05-22T02:42:36.337Z,15.54
2023-05-22T02:45:03.321Z,15.52
2023-05-22T02:47:30.064Z,15.48
2023-05-22T02:49:58.034Z,15.47
2023-05-22T02:52:25.098Z,15.46
2023-05-22T02:54:51.643Z,15.44
2023-05-22T02:57:18.305Z,15.43
2023-05-22T02:59:45.002Z,15.42
2023-05-22T03:02:12.342Z,15.39
2023-05-22T03:04:38.998Z,15.39
2023-05-22T03:07:07.292Z,15.39
2023-05-22T03:09:34.007Z,15.40
2023-05-22T03:12:00.942Z,15.38
2023-05-22T03:14:29.132Z,15.38
2023-05-22T03:16:56.245Z,15.40
2023-05-22T03:19:23.364Z,15.43
2023-05-22T03:21:50.204Z,15.40
2023-05-22T03:24:17.073Z,15.38
2023-05-22T03:26:44.063Z,15.39
2023-05-22T03:29:10.917Z,15.36
2023-05-22T03:31:37.637Z,15.32
2023-05-22T03:34:05.766Z,15.30
2023-05-22T03:36:35.832Z,15.29
2023-05-22T03:39:03.816Z,15.27
2023-05-22T03:41:30.599Z,15.24
2023-05-22T03:43:58.387Z,15.24
2023-05-22T03:46:25.670Z,15.23
2023-05-22T03:48:52.552Z,15.17
2023-05-22T03:51:20.371Z,15.16
2023-05-22T03:53:47.168Z,15.16
2023-05-22T03:56:13.800Z,15.15
2023-05-22T03:58:40.550Z,15.12
2023-05-22T04:01:09.994Z,15.07
2023-05-22T04:03:37.916Z,15.00
2023-05-22T04:06:05.804Z,14.97
2023-05-22T04:08:32.730Z,14.97
2023-05-22T04:10:59.286Z,14.98
2023-05-22T04:13:27.283Z,14.96
2023-05-22T04:15:54.078Z,14.96
2023-05-22T04:18:20.697Z,14.95
2023-05-22T04:20:47.292Z,14.96
2023-05-22T04:23:14.140Z,15.01
2023-05-22T04:25:40.795Z,15.01
2023-05-22T04:28:09.351Z,15.01
2023-05-22T04:30:38.837Z,14.99
2023-05-22T04:33:05.886Z,14.93
2023-05-22T04:35:32.643Z,14.87
2023-05-22T04:38:02.593Z,14.89
2023-05-22T04:40:30.467Z,14.90
2023-05-22T04:42:59.940Z,14.89
2023-05-22T04:45:30.564Z,14.91
2023-05-22T04:47:57.208Z,14.93
2023-05-22T04:50:24.148Z,14.93
2023-05-22T04:52:51.012Z,14.88
2023-05-22T04:55:19.264Z,14.89
2023-05-22T04:57:47.394Z,14.87
2023-05-22T05:00:16.796Z,14.89
2023-05-22T05:02:43.519Z,14.87
2023-05-22T05:05:10.367Z,14.88
2023-05-22T05:07:38.521Z,14.90
2023-05-22T05:10:06.065Z,14.91
2023-05-22T05:12:32.760Z,14.92
2023-05-22T05:14:59.315Z,14.91
2023-05-22T05:17:25.973Z,14.93
2023-05-22T05:19:52.988Z,14.95
2023-05-22T05:22:19.583Z,14.96
2023-05-22T05:24:46.452Z,14.97
2023-05-22T05:27:13.422Z,15.02
2023-05-22T05:29:40.094Z,15.06
2023-05-22T05:32:07.210Z,15.10
2023-05-22T05:34:34.014Z,15.15
2023-05-22T05:37:01.570Z,15.22
2023-05-22T05:39:28.291Z,15.32
2023-05-22T05:41:54.879Z,15.44
2023-05-22T05:44:21.974Z,15.55
2023-05-22T05:46:48.745Z,15.70
2023-05-22T05:49:15.479Z,15.83
2023-05-22T05:51:42.182Z,15.96
2023-05-22T05:54:08.725Z,16.11
2023-05-22T05:56:35.859Z,16.23
2023-05-22T05:59:02.657Z,16.37
2023-05-22T06:01:31.481Z,16.48
2023-05-22T06:03:59.496Z,16.62
2023-05-22T06:06:26.839Z,16.75
2023-05-22T06:08:53.480Z,16.84
2023-05-22T06:11:20.053Z,16.96
2023-05-22T06:13:46.718Z,17.13
2023-05-22T06:16:13.849Z,17.18
2023-05-22T06:18:40.953Z,17.25
2023-05-22T06:21:07.841Z,17.25
2023-05-22T06:23:34.398Z,17.38
2023-05-22T06:26:01.121Z,17.48
2023-05-22T06:28:27.769Z,17.54
2023-05-22T06:30:54.430Z,17.60
2023-05-22T06:33:21.367Z,17.73
2023-05-22T06:35:48.250Z,17.89
2023-05-22T06:38:14.879Z,18.07
2023-05-22T06:40:41.804Z,18.23
2023-05-22T06:43:08.600Z,18.45
2023-05-22T06:45:37.457Z,18.64
2023-05-22T06:48:04.678Z,18.76
2023-05-22T06:50:31.375Z,18.91
2023-05-22T06:52:58.079Z,19.07
2023-05-22T06:55:24.680Z,19.26
2023-05-22T06:57:51.263Z,19.36
2023-05-22T07:00:20.914Z,19.42
2023-05-22T07:02:48.308Z,19.55
2023-05-22T07:05:15.202Z,19.74
2023-05-22T07:07:41.811Z,19.85
2023-05-22T07:10:09.131Z,20.01
2023-05-22T07:12:35.883Z,20.12
2023-05-22T07:15:03.077Z,20.25
2023-05-22T07:17:29.677Z,20.38
2023-05-22T07:19:56.258Z,20.35
2023-05-22T07:22:22.944Z,20.38
2023-05-22T07:24:49.739Z,20.46
2023-05-22T07:27:16.456Z,20.51
2023-05-22T07:29:43.097Z,20.53
2023-05-22T07:32:10.151Z,20.55
2023-05-22T07:34:37.340Z,20.59
2023-05-22T07:37:09.025Z,20.62
2023-05-22T07:39:35.772Z,20.58
2023-05-22T07:42:03.223Z,20.64
2023-05-22T07:44:29.861Z,20.72
2023-05-22T07:46:56.813Z,20.77
2023-05-22T07:49:24.306Z,20.79
2023-05-22T07:51:51.203Z,20.79
2023-05-22T07:54:18.582Z,20.90
2023-05-22T07:56:45.907Z,21.01
2023-05-22T07:59:12.642Z,21.07
2023-05-22T08:01:41.978Z,21.17
2023-05-22T08:04:08.965Z,21.28
2023-05-22T08:06:36.132Z,21.30
2023-05-22T08:09:04.653Z,21.33
2023-05-22T08:11:31.374Z,21.31
2023-05-22T08:13:58.392Z,21.32
2023-05-22T08:16:25.250Z,21.36
2023-05-22T08:18:54.304Z,21.40
2023-05-22T08:21:21.068Z,21.49
2023-05-22T08:23:47.676Z,21.52
2023-05-22T08:26:15.132Z,21.60
2023-05-22T08:28:44.964Z,21.71
2023-05-22T08:31:12.170Z,21.84
2023-05-22T08:33:40.041Z,21.96
2023-05-22T08:36:06.992Z,22.07
2023-05-22T08:38:34.306Z,22.18
2023-05-22T08:41:01.401Z,22.21
2023-05-22T08:43:28.751Z,22.28
2023-05-22T08:46:04.203Z,22.36
2023-05-22T08:48:33.538Z,22.46
2023-05-22T08:51:05.252Z,22.54
2023-05-22T08:53:37.575Z,22.51
2023-05-22T08:56:07.363Z,22.61
2023-05-22T08:58:36.195Z,22.67
2023-05-22T09:01:09.169Z,22.69
2023-05-22T09:03:37.366Z,22.77
2023-05-22T09:06:04.835Z,22.82
2023-05-22T09:08:31.705Z,22.78
2023-05-22T09:11:00.902Z,22.85
2023-05-22T09:13:29.493Z,22.92
2023-05-22T09:16:00.727Z,22.88
2023-05-22T09:18:28.882Z,22.96
2023-05-22T09:20:59.323Z,23.05
2023-05-22T09:23:28.205Z,23.05
2023-05-22T09:26:00.259Z,23.15
2023-05-22T09:28:27.542Z,23.21
2023-05-22T09:30:55.971Z,23.26
2023-05-22T09:33:24.157Z,23.31
2023-05-22T09:35:53.045Z,23.26
2023-05-22T09:38:21.847Z,23.35
2023-05-22T09:40:53.364Z,23.40
2023-05-22T09:43:22.297Z,23.35
2023-05-22T09:45:48.917Z,23.34
2023-05-22T09:48:17.542Z,23.43
2023-05-22T09:53:44.368Z,23.58
2023-05-22T09:56:19.141Z,23.67
2023-05-22T09:58:48.539Z,23.74
2023-05-22T10:01:17.055Z,23.75
2023-05-22T10:03:45.862Z,23.93
2023-05-22T10:06:16.731Z,23.95
2023-05-22T10:08:49.135Z,23.94
2023-05-22T10:11:17.323Z,23.77
2023-05-22T10:13:47.546Z,23.87
2023-05-22T10:16:16.941Z,23.86
2023-05-22T10:18:46.668Z,23.92
2023-05-22T10:21:13.723Z,23.99
2023-05-22T10:23:41.567Z,24.12
2023-05-22T10:26:10.777Z,24.17
2023-05-22T10:28:46.295Z,24.25
2023-05-22T10:31:26.448Z,24.53
2023-05-22T10:34:00.451Z,24.50
2023-05-22T10:36:43.686Z,24.45
2023-05-22T10:39:22.360Z,24.37
2023-05-22T10:41:49.345Z,24.43
2023-05-22T10:44:17.500Z,24.43
2023-05-22T10:46:51.414Z,24.51
2023-05-22T10:49:23.118Z,24.61
2023-05-22T10:51:55.807Z,24.71
2023-05-22T10:54:40.199Z,24.83
2023-05-22T10:57:14.059Z,24.92
2023-05-22T10:59:40.765Z,24.97
2023-05-22T11:02:21.229Z,25.06
2023-05-22T11:04:49.185Z,25.16
2023-05-22T11:07:16.691Z,25.27
2023-05-22T11:09:46.299Z,25.24
2023-05-22T11:12:14.482Z,25.29
2023-05-22T11:14:41.168Z,25.31
2023-05-22T11:17:08.078Z,25.43
2023-05-22T11:19:35.098Z,25.54
2023-05-22T11:22:03.622Z,25.55
2023-05-22T11:24:34.413Z,25.63
2023-05-22T11:27:08.150Z,25.64
2023-05-22T11:29:36.007Z,25.69
2023-05-22T11:32:03.179Z,25.63
2023-05-22T11:34:32.509Z,25.71
2023-05-22T11:39:58.544Z,25.85
2023-05-22T11:42:25.394Z,25.87
2023-05-22T11:44:52.254Z,25.93
2023-05-22T11:47:19.039Z,25.97
2023-05-22T11:49:46.438Z,26.09
2023-05-22T11:52:13.264Z,26.01
2023-05-22T11:54:39.852Z,26.02
2023-05-22T11:57:07.918Z,26.08
2023-05-22T11:59:34.781Z,26.17
2023-05-22T12:02:01.464Z,26.21
2023-05-22T12:04:28.135Z,26.26
2023-05-22T12:06:55.360Z,26.32
2023-05-22T12:09:22.221Z,26.36
2023-05-22T12:11:49.668Z,26.39
2023-05-22T12:14:16.461Z,26.47
2023-05-22T12:16:44.773Z,26.57
2023-05-22T12:19:13.432Z,26.77
2023-05-22T12:21:42.038Z,26.62
2023-05-22T12:24:08.706Z,26.52
2023-05-22T12:26:36.562Z,26.49
2023-05-22T12:29:06.153Z,26.45
2023-05-22T12:31:37.564Z,26.61
2023-05-22T12:34:06.583Z,26.59
2023-05-22T12:36:41.039Z,26.63
2023-05-22T12:39:14.319Z,26.82
2023-05-22T12:41:41.122Z,26.68
2023-05-22T12:44:08.143Z,26.45
2023-05-22T12:46:35.158Z,26.33
2023-05-22T12:49:01.961Z,26.36
2023-05-22T12:51:31.281Z,26.36
2023-05-22T12:54:00.439Z,26.22
2023-05-22T12:56:27.966Z,26.32
2023-05-22T12:58:54.675Z,26.22
2023-05-22T13:01:21.932Z,26.20
2023-05-22T13:03:48.769Z,26.16
2023-05-22T13:06:15.632Z,26.20
2023-05-22T13:08:42.453Z,26.01
2023-05-22T13:11:12.370Z,25.83
2023-05-22T13:13:40.350Z,25.35
2023-05-22T13:16:21.516Z,25.35
2023-05-22T13:18:48.588Z,25.13
2023-05-22T13:29:59.313Z,24.92
2023-05-22T13:32:26.355Z,24.95
2023-05-22T13:34:53.389Z,24.70
2023-05-22T13:37:20.357Z,24.87
2023-05-22T13:39:47.337Z,24.77
2023-05-22T13:42:13.996Z,24.74
2023-05-22T13:44:40.719Z,24.91
2023-05-22T13:47:07.737Z,24.79
2023-05-22T13:49:34.451Z,24.82
2023-05-22T13:54:56.152Z,24.82
2023-05-22T13:57:22.807Z,24.78
2023-05-22T13:59:50.860Z,24.54
2023-05-22T14:02:28.067Z,24.56
2023-05-22T14:04:54.859Z,24.56
2023-05-22T14:07:21.813Z,24.71
2023-05-22T14:09:48.415Z,24.49
2023-05-22T14:12:15.287Z,24.35
2023-05-22T14:14:42.052Z,24.45
2023-05-22T14:17:09.334Z,24.30
2023-05-22T14:19:36.142Z,24.46
2023-05-22T14:22:03.197Z,24.39
2023-05-22T14:24:29.984Z,24.29
2023-05-22T14:26:58.366Z,24.21
2023-05-22T14:29:25.985Z,24.47
2023-05-22T14:32:01.483Z,24.41
2023-05-22T14:34:28.206Z,24.32
2023-05-22T14:36:56.722Z,24.09
2023-05-22T14:39:24.979Z,24.06
2023-05-22T14:41:55.013Z,23.71
2023-05-22T14:44:22.901Z,23.80
2023-05-22T14:46:51.311Z,23.76
2023-05-22T14:49:21.320Z,23.67
2023-05-22T14:51:48.447Z,23.56
2023-05-22T14:54:19.187Z,23.72
2023-05-22T14:56:46.563Z,23.56
2023-05-22T14:59:14.288Z,23.63
2023-05-22T15:01:41.246Z,23.55
2023-05-22T15:04:09.063Z,23.61
2023-05-22T15:06:36.370Z,23.60
2023-05-22T15:09:03.504Z,23.75
2023-05-22T15:11:30.115Z,23.42
2023-05-22T15:13:56.937Z,23.59
2023-05-22T15:16:25.804Z,23.50
2023-05-22T15:18:52.832Z,23.37
2023-05-22T15:21:19.583Z,23.39
2023-05-22T15:23:46.399Z,23.46
2023-05-22T15:26:13.074Z,23.40
2023-05-22T15:28:39.816Z,23.31
2023-05-22T15:31:06.590Z,23.48
2023-05-22T15:33:34.451Z,23.37
2023-05-22T15:36:01.050Z,23.40
2023-05-22T15:38:28.386Z,23.24
2023-05-22T15:43:53.248Z,23.09
2023-05-22T15:46:20.046Z,23.09
2023-05-22T15:48:46.811Z,23.05
2023-05-22T15:51:13.504Z,22.94
2023-05-22T15:53:40.523Z,22.88
2023-05-22T15:56:07.544Z,22.83
2023-05-22T15:58:34.275Z,22.95
2023-05-22T16:01:02.011Z,22.95
2023-05-22T16:03:28.751Z,22.92
2023-05-22T16:05:55.554Z,22.98
2023-05-22T16:08:22.200Z,23.03
2023-05-22T16:10:49.184Z,23.14
2023-05-22T16:13:17.158Z,23.04
2023-05-22T16:15:44.357Z,23.05
2023-05-22T16:18:12.385Z,23.02
2023-05-22T16:20:39.382Z,22.91
2023-05-22T16:23:06.136Z,23.19
2023-05-22T16:25:32.895Z,23.06
2023-05-22T16:27:59.717Z,23.02
2023-05-22T16:30:27.827Z,22.82
2023-05-22T16:32:54.470Z,22.80
2023-05-22T16:35:22.296Z,22.72
2023-05-22T16:37:51.126Z,22.63
2023-05-22T16:40:18.678Z,22.57
2023-05-22T16:42:45.438Z,22.64
2023-05-22T16:45:12.238Z,22.63
2023-05-22T16:47:38.871Z,22.66
2023-05-22T16:50:06.310Z,22.45
2023-05-22T16:52:32.982Z,22.33
2023-05-22T16:54:59.490Z,22.53
2023-05-22T16:57:28.184Z,22.41
2023-05-22T16:59:57.237Z,22.48
2023-05-22T17:02:24.477Z,22.56
2023-05-22T17:04:51.144Z,22.49
2023-05-22T17:07:17.774Z,22.33
2023-05-22T17:09:44.411Z,22.23
2023-05-22T17:12:11.105Z,22.12
2023-05-22T17:14:37.831Z,22.00
2023-05-22T17:17:04.636Z,22.07
2023-05-22T17:19:32.337Z,22.06
2023-05-22T17:21:59.234Z,21.86
2023-05-22T17:24:27.863Z,21.90
2023-05-22T17:26:54.531Z,21.59
2023-05-22T17:29:21.237Z,21.63
2023-05-22T17:31:48.199Z,21.66
2023-05-22T17:34:14.911Z,21.69
2023-05-22T17:36:43.270Z,21.50
2023-05-22T17:39:11.555Z,21.41
2023-05-22T17:41:38.433Z,21.38
2023-05-22T17:44:05.076Z,21.26
2023-05-22T17:46:31.922Z,21.39
2023-05-22T17:48:58.762Z,21.31
2023-05-22T17:51:25.529Z,21.39
2023-05-22T17:53:56.354Z,21.23
2023-05-22T17:56:23.596Z,21.10
2023-05-22T17:58:50.929Z,21.12
2023-05-22T18:01:18.244Z,21.17
2023-05-22T18:03:46.089Z,21.16
2023-05-22T18:09:08.437Z,21.18
2023-05-22T18:11:35.117Z,21.23
2023-05-22T18:14:01.718Z,21.26
2023-05-22T18:16:28.903Z,21.19
2023-05-22T18:18:55.802Z,21.08
2023-05-22T18:21:22.610Z,21.06
2023-05-22T18:23:49.418Z,20.94
2023-05-22T18:26:15.993Z,20.96
2023-05-22T18:28:42.769Z,20.92
2023-05-22T18:31:14.405Z,21.03
2023-05-22T18:33:44.712Z,20.89
2023-05-22T18:36:12.226Z,20.92
2023-05-22T18:38:41.008Z,20.90
2023-05-22T18:41:07.666Z,20.90
2023-05-22T18:43:34.380Z,20.88
2023-05-22T18:46:01.083Z,20.89
2023-05-22T18:48:28.474Z,20.85
2023-05-22T18:50:57.529Z,20.75
2023-05-22T18:53:26.992Z,20.81
2023-05-22T18:55:54.094Z,20.68
2023-05-22T18:58:21.088Z,20.67
2023-05-22T19:03:42.380Z,20.53
2023-05-22T19:06:08.971Z,20.53
2023-05-22T19:08:35.660Z,20.60
2023-05-22T19:11:02.172Z,20.58
2023-05-22T19:13:29.456Z,20.60
2023-05-22T19:16:03.693Z,20.64
2023-05-22T19:18:30.325Z,20.47
2023-05-22T19:20:57.009Z,20.41
2023-05-22T19:23:23.911Z,20.34
2023-05-22T19:25:50.879Z,20.30
2023-05-22T19:28:17.645Z,20.27
2023-05-22T19:33:38.971Z,20.12
2023-05-22T19:36:06.914Z,20.08
2023-05-22T19:38:33.711Z,20.14
2023-05-22T19:41:00.505Z,19.88
2023-05-22T19:43:27.409Z,19.93
2023-05-22T19:45:54.219Z,19.93
2023-05-22T19:48:21.717Z,19.81
2023-05-22T19:50:48.369Z,19.84
2023-05-22T19:53:14.940Z,19.87
2023-05-22T19:58:35.872Z,19.60
2023-05-22T20:01:02.644Z,19.70
2023-05-22T20:03:29.207Z,19.60
2023-05-22T20:05:56.273Z,19.49
2023-05-22T20:08:23.491Z,19.48
2023-05-22T20:13:44.367Z,19.19
2023-05-22T20:16:12.808Z,19.11
2023-05-22T20:18:41.204Z,18.95
2023-05-22T20:21:08.326Z,18.85
2023-05-22T20:23:34.963Z,18.65
2023-05-22T20:26:01.607Z,18.59
2023-05-22T20:28:28.794Z,18.49
2023-05-22T20:30:55.406Z,18.41
2023-05-22T20:33:22.631Z,18.35
2023-05-22T20:35:52.827Z,18.38
2023-05-22T20:38:20.213Z,18.35
2023-05-22T20:40:47.724Z,18.32
2023-05-22T20:43:14.760Z,18.28
2023-05-22T20:45:45.752Z,18.19
2023-05-22T20:48:13.487Z,17.96
2023-05-22T20:50:42.449Z,17.85
2023-05-22T20:53:09.318Z,17.77
2023-05-22T20:55:39.058Z,17.69
2023-05-22T20:58:05.874Z,17.62
2023-05-22T21:00:35.165Z,17.53
2023-05-22T21:03:01.851Z,17.49
2023-05-22T21:05:28.613Z,17.35
2023-05-22T21:07:55.483Z,17.18
2023-05-22T21:10:22.122Z,17.14
2023-05-22T21:12:48.793Z,17.16
2023-05-22T21:15:15.744Z,17.09
2023-05-22T21:17:43.078Z,17.06
2023-05-22T21:20:10.391Z,16.96
2023-05-22T21:22:37.035Z,16.85
2023-05-22T21:25:04.149Z,16.84
2023-05-22T21:27:30.719Z,16.78
2023-05-22T21:29:57.431Z,16.69
2023-05-22T21:32:24.235Z,16.65
2023-05-22T21:34:50.912Z,16.58
2023-05-22T21:37:17.493Z,16.53
2023-05-22T21:39:44.329Z,16.41
2023-05-22T21:42:11.111Z,16.44
2023-05-22T21:44:37.934Z,16.39
2023-05-22T21:47:04.926Z,16.31
2023-05-22T21:49:31.627Z,16.26
2023-05-22T21:51:58.285Z,16.25
2023-05-22T21:54:24.972Z,16.27
2023-05-22T21:56:51.630Z,16.30
2023-05-22T21:59:18.443Z,16.26
2023-05-22T22:01:45.346Z,16.17
2023-05-22T22:04:12.240Z,16.11
2023-05-22T22:06:39.127Z,16.07
2023-05-22T22:09:05.791Z,16.08
2023-05-22T22:11:32.524Z,16.05
2023-05-22T22:13:59.029Z,16.08
2023-05-22T22:16:26.129Z,16.04
2023-05-22T22:18:52.886Z,15.94
2023-05-22T22:21:19.937Z,15.92
2023-05-22T22:23:46.778Z,15.93
2023-05-22T22:26:13.841Z,15.89
2023-05-22T22:28:40.667Z,15.92
2023-05-22T22:31:50.497Z,15.92
2023-05-22T22:34:17.192Z,15.94
2023-05-22T22:36:44.156Z,15.97
2023-05-22T22:39:11.407Z,15.99
2023-05-22T22:44:32.449Z,15.92
2023-05-22T22:46:59.292Z,15.90
2023-05-22T22:49:25.867Z,15.89
2023-05-22T22:54:46.591Z,15.81
2023-05-22T22:57:13.354Z,15.75
2023-05-22T22:59:40.175Z,15.77
2023-05-22T23:02:07.031Z,15.74
2023-05-22T23:04:34.111Z,15.66
2023-05-22T23:07:00.861Z,15.64
2023-05-22T23:09:27.521Z,15.64
2023-05-22T23:14:50.586Z,15.54
2023-05-22T23:17:17.379Z,15.54
2023-05-22T23:19:44.469Z,15.58
2023-05-22T23:25:06.193Z,15.58
2023-05-22T23:27:32.768Z,15.49
2023-05-22T23:29:59.865Z,15.46
2023-05-22T23:32:26.750Z,15.47
2023-05-22T23:34:53.758Z,15.51
2023-05-22T23:37:20.534Z,15.44
2023-05-22T23:39:47.049Z,15.43
2023-05-22T23:45:08.220Z,15.43
2023-05-22T23:47:35.032Z,15.42
2023-05-22T23:50:02.090Z,15.31
2023-05-22T23:52:28.783Z,15.22
2023-05-22T23:54:55.580Z,15.16
2023-05-22T23:57:22.273Z,15.08
2023-05-22T23:59:49.191Z,15.09
